Time;durP1;ratioP1;P1;durP2;ratioP2;P2;SDS_P1;SDS_P2;PMS_P1;PMS_P2;Temp;Humidity;BMP_temperature;BMP_pressure;BME280_temperature;BME280_humidity;BME280_pressure;Samples;Min_cycle;Max_cycle;Signal;HPM_P1;HPM_P2
2023/05/14 00:01:35;;;;;;;6.15;2.12;;;;;;;23.67;42.00;100073.63;4259246;33;34675;-63
2023/05/14 00:04:03;;;;;;;6.07;2.60;;;;;;;23.68;42.01;100075.28;4259294;33;34169;-64
2023/05/14 00:06:31;;;;;;;4.60;2.05;;;;;;;23.66;42.02;100059.19;4259144;33;33891;-64
2023/05/14 00:08:59;;;;;;;6.28;2.30;;;;;;;23.67;42.06;100054.56;4259294;33;34103;-64
2023/05/14 00:11:27;;;;;;;5.15;2.37;;;;;;;23.66;42.07;100069.25;4259151;33;34279;-63
2023/05/14 00:13:54;;;;;;;3.78;2.12;;;;;;;23.65;42.07;100059.41;4258909;33;34295;-63
2023/05/14 00:16:21;;;;;;;5.60;2.55;;;;;;;23.66;41.98;100058.34;4259162;33;34532;-63
2023/05/14 00:18:49;;;;;;;5.30;2.50;;;;;;;23.66;41.91;100061.06;4259250;33;34204;-63
2023/05/14 00:21:17;;;;;;;4.55;2.30;;;;;;;23.64;41.85;100049.53;4259102;33;33445;-63
2023/05/14 00:23:44;;;;;;;5.87;2.30;;;;;;;23.64;41.90;100058.56;4259059;33;33240;-63
2023/05/14 00:26:12;;;;;;;4.60;2.10;;;;;;;23.63;41.89;100053.28;4258969;33;34026;-64
2023/05/14 00:28:40;;;;;;;5.60;2.30;;;;;;;23.64;41.92;100055.00;4259034;33;34822;-64
2023/05/14 00:31:07;;;;;;;6.50;2.08;;;;;;;23.62;41.93;100046.19;4258867;33;33711;-63
2023/05/14 00:33:35;;;;;;;5.28;2.33;;;;;;;23.62;42.01;100048.91;4258869;33;33434;-64
2023/05/14 00:36:03;;;;;;;4.28;2.28;;;;;;;23.63;42.01;100043.22;4260202;33;34061;-63
2023/05/14 00:38:30;;;;;;;5.68;2.50;;;;;;;23.62;41.89;100027.94;4260978;33;35331;-63
2023/05/14 00:40:58;;;;;;;3.83;2.10;;;;;;;23.63;41.88;100040.50;4260655;33;34854;-64
2023/05/14 00:43:25;;;;;;;3.90;2.10;;;;;;;23.63;41.86;100032.34;4260858;33;34261;-63
2023/05/14 00:45:53;;;;;;;4.03;1.98;;;;;;;23.63;41.92;100031.50;4260997;33;34025;-64
2023/05/14 00:48:21;;;;;;;5.75;2.10;;;;;;;23.63;41.88;100023.34;4236107;33;34020;-63
2023/05/14 00:50:49;;;;;;;7.68;2.30;;;;;;;23.62;41.91;100025.22;4236588;33;33994;-64
2023/05/14 00:53:17;;;;;;;4.30;1.70;;;;;;;23.63;41.85;100023.34;4247920;33;32696;-64
2023/05/14 00:55:45;;;;;;;6.80;2.15;;;;;;;23.62;41.83;100022.50;4260651;33;33996;-65
2023/05/14 00:58:13;;;;;;;5.72;2.42;;;;;;;23.63;41.90;100009.72;4260781;33;34767;-64
2023/05/14 01:00:41;;;;;;;5.97;1.98;;;;;;;23.62;41.93;100017.06;4260589;33;34374;-64
2023/05/14 01:03:09;;;;;;;4.07;1.98;;;;;;;23.61;42.03;100014.56;4260538;33;33795;-64
2023/05/14 01:05:48;;;;;;;8.38;2.50;;;;;;;23.60;42.03;100004.72;4261007;33;33586;-63
2023/05/14 01:08:19;;;;;;;3.87;2.10;;;;;;;23.62;42.01;100003.44;4260757;33;34752;-63
2023/05/14 01:11:07;;;;;;;6.22;2.35;;;;;;;23.60;42.06;100007.44;4260671;33;33933;-64
2023/05/14 01:14:12;;;;;;;3.78;1.90;;;;;;;23.60;42.05;100012.91;4247730;33;33673;-63
2023/05/14 01:16:40;;;;;;;4.55;2.40;;;;;;;23.59;42.09;100003.88;4260507;33;33797;-63
2023/05/14 01:19:15;;;;;;;5.68;2.42;;;;;;;23.57;42.15;100008.72;4247750;33;33722;-64
2023/05/14 01:21:42;;;;;;;6.80;2.22;;;;;;;23.57;42.17;100006.00;4247879;33;34784;-64
2023/05/14 01:24:10;;;;;;;4.60;2.33;;;;;;;23.59;42.15;100001.16;4260512;33;32993;-63
2023/05/14 01:26:37;;;;;;;4.37;2.30;;;;;;;23.59;42.16;99997.59;4260747;33;34595;-64
2023/05/14 01:29:21;;;;;;;4.85;2.30;;;;;;;23.58;42.11;99994.03;4260648;33;34672;-63
2023/05/14 01:31:49;;;;;;;3.97;2.00;;;;;;;23.61;42.06;99998.22;4248055;33;34839;-64
2023/05/14 01:34:19;;;;;;;4.53;2.08;;;;;;;23.57;42.13;99983.38;4260607;33;33359;-64
2023/05/14 01:36:47;;;;;;;;;;;;;;;23.57;42.19;99983.38;4248105;33;34571;-63
2023/05/14 01:39:15;;;;;;;4.15;1.87;;;;;;;23.66;42.00;99973.91;4259392;33;33606;-64
2023/05/14 01:41:42;;;;;;;5.65;2.10;;;;;;;23.59;42.10;99971.19;4260435;33;33875;-64
2023/05/14 01:44:10;;;;;;;3.83;2.00;;;;;;;23.58;42.15;99971.41;4259297;33;32956;-63
2023/05/14 01:46:37;;;;;;;5.75;2.10;;;;;;;23.56;42.11;99963.47;4247572;33;32909;-63
2023/05/14 01:49:05;;;;;;;4.95;2.08;;;;;;;23.56;42.06;99963.47;4259341;33;34708;-64
2023/05/14 01:51:32;;;;;;;6.80;2.30;;;;;;;23.58;42.07;99957.78;4260094;33;34147;-64
2023/05/14 01:54:02;;;;;;;4.93;2.00;;;;;;;23.57;42.10;99948.78;4260615;33;33624;-64
2023/05/14 01:56:29;;;;;;;2.95;1.83;;;;;;;23.58;42.08;99947.72;4260428;33;35129;-64
2023/05/14 01:58:56;;;;;;;4.00;1.70;;;;;;;23.57;42.10;99937.91;4260330;33;33652;-64
2023/05/14 02:01:25;;;;;;;5.78;2.20;;;;;;;23.56;42.18;99938.13;4250813;33;34005;-63
2023/05/14 02:03:53;;;;;;;5.35;2.58;;;;;;;23.56;42.16;99944.41;4246279;33;33258;-63
2023/05/14 02:06:21;;;;;;;4.30;2.12;;;;;;;23.56;42.17;99949.84;4245895;33;34688;-63
2023/05/14 02:08:48;;;;;;;4.15;1.87;;;;;;;23.57;42.18;99946.06;4246246;33;34011;-64
2023/05/14 02:11:16;;;;;;;5.50;1.85;;;;;;;23.56;42.17;99938.13;4246147;33;34010;-64
2023/05/14 02:13:44;;;;;;;5.18;2.28;;;;;;;23.56;42.16;99936.25;4246000;33;33132;-63
2023/05/14 02:16:11;;;;;;;4.57;2.10;;;;;;;23.57;42.15;99940.63;4246151;33;34734;-63
2023/05/14 02:18:39;;;;;;;3.47;1.98;;;;;;;23.57;42.13;99943.34;4245946;33;34738;-64
2023/05/14 02:21:07;;;;;;;4.85;2.12;;;;;;;23.57;42.16;99946.06;4246059;33;34185;-64
2023/05/14 02:23:35;;;;;;;3.40;1.83;;;;;;;23.58;42.18;99938.72;4246380;33;32946;-63
2023/05/14 02:26:11;;;;;;;3.25;1.77;;;;;;;23.56;42.16;99936.25;4246155;33;34716;-64
2023/05/14 02:28:38;;;;;;;4.82;2.15;;;;;;;23.54;42.18;99938.34;4246344;33;34038;-63
2023/05/14 02:31:06;;;;;;;6.15;2.10;;;;;;;23.55;42.21;99941.88;4246061;33;34204;-63
2023/05/14 02:33:34;;;;;;;4.00;2.05;;;;;;;23.54;42.21;99938.34;4248050;33;34238;-64
2023/05/14 02:36:02;;;;;;;4.32;1.80;;;;;;;23.54;42.21;99935.62;4260022;33;34722;-63
2023/05/14 02:38:30;;;;;;;3.90;2.30;;;;;;;23.53;42.23;99936.69;4260205;33;34011;-64
2023/05/14 02:40:57;;;;;;;5.82;1.85;;;;;;;23.53;42.23;99933.94;4250181;33;34290;-64
2023/05/14 02:43:25;;;;;;;4.53;2.10;;;;;;;23.54;42.23;99932.06;4246076;33;33543;-64
2023/05/14 02:45:52;;;;;;;6.03;1.60;;;;;;;23.54;42.24;99932.87;4246262;33;33478;-64
2023/05/14 02:48:20;;;;;;;4.18;1.90;;;;;;;23.54;42.22;99935.62;4245740;33;34709;-64
2023/05/14 02:50:48;;;;;;;5.62;2.40;;;;;;;23.54;42.21;99932.87;4245861;33;34680;-64
2023/05/14 02:53:16;;;;;;;4.82;2.30;;;;;;;23.54;42.21;99927.44;4256053;33;33377;-63
2023/05/14 02:55:43;;;;;;;3.35;1.58;;;;;;;23.55;42.18;99933.72;4259923;33;34017;-64
2023/05/14 02:58:11;;;;;;;4.78;1.90;;;;;;;23.55;42.21;99933.72;4259371;33;33986;-64
2023/05/14 03:00:39;;;;;;;4.78;2.05;;;;;;;23.54;42.22;99938.34;4259996;33;33808;-63
2023/05/14 03:03:07;;;;;;;3.67;2.00;;;;;;;23.53;42.23;99925.78;4260155;33;34068;-64
2023/05/14 03:05:35;;;;;;;4.50;1.92;;;;;;;23.54;42.20;99923.88;4259927;33;33889;-65
2023/05/14 03:08:03;;;;;;;7.90;2.00;;;;;;;23.53;42.22;99923.06;4259916;33;33921;-68
2023/05/14 03:10:31;;;;;;;5.22;1.80;;;;;;;23.54;42.17;99915.72;4258871;33;34116;-69
2023/05/14 03:12:59;;;;;;;2.83;1.45;;;;;;;23.53;42.07;99917.59;4259851;33;33185;-66
2023/05/14 03:15:26;;;;;;;5.15;1.83;;;;;;;23.53;42.00;99923.06;4259861;33;33862;-65
2023/05/14 03:17:54;;;;;;;3.78;1.83;;;;;;;23.53;42.02;99927.69;4259736;33;33995;-65
2023/05/14 03:20:23;;;;;;;2.80;1.65;;;;;;;23.53;42.01;99928.50;4259853;33;33869;-65
2023/05/14 03:22:53;;;;;;;3.55;1.95;;;;;;;23.52;42.02;99926.84;4259914;33;32963;-65
2023/05/14 03:25:20;;;;;;;4.07;1.87;;;;;;;23.51;42.04;99922.47;4259597;33;34107;-64
2023/05/14 03:27:48;;;;;;;3.42;1.75;;;;;;;23.51;42.10;99916.19;4259771;33;34955;-64
2023/05/14 03:30:15;;;;;;;4.18;1.95;;;;;;;23.52;42.09;99912.41;4246669;33;34130;-65
2023/05/14 03:32:44;;;;;;;6.40;2.00;;;;;;;23.50;42.12;99912.63;4245451;33;33695;-65
2023/05/14 03:35:11;;;;;;;3.35;1.80;;;;;;;23.50;42.12;99909.91;4244215;33;34488;-65
2023/05/14 03:37:38;;;;;;;5.30;2.05;;;;;;;23.50;42.14;99912.63;4245496;33;33663;-65
2023/05/14 03:40:06;;;;;;;5.82;1.80;;;;;;;23.52;42.12;99920.56;4245231;33;33816;-65
2023/05/14 03:42:35;;;;;;;6.90;2.30;;;;;;;23.50;42.11;99915.34;4245322;33;33220;-64
2023/05/14 03:45:03;;;;;;;5.03;2.08;;;;;;;23.52;42.10;99923.28;4245395;33;33843;-64
2023/05/14 03:47:31;;;;;;;4.62;2.17;;;;;;;23.50;42.11;99918.09;4245333;33;34491;-63
2023/05/14 03:49:59;;;;;;;7.50;2.35;;;;;;;23.49;42.14;99910.94;4245517;33;33650;-64
2023/05/14 03:52:27;;;;;;;5.03;2.20;;;;;;;23.49;42.15;99908.22;4245159;33;33510;-65
2023/05/14 03:54:54;;;;;;;3.75;1.87;;;;;;;23.50;42.12;99901.75;4245020;33;33742;-65
2023/05/14 03:57:22;;;;;;;7.43;2.30;;;;;;;23.49;42.11;99905.50;4245274;33;34115;-64
2023/05/14 03:59:49;;;;;;;5.22;2.15;;;;;;;23.49;42.09;99897.31;4245244;33;34497;-64
2023/05/14 04:02:18;;;;;;;6.30;2.27;;;;;;;23.47;42.15;99896.72;4245426;33;33993;-63
2023/05/14 04:04:46;;;;;;;5.10;1.60;;;;;;;23.48;42.14;99897.56;4245462;33;33683;-63
2023/05/14 04:07:17;;;;;;;3.95;1.75;;;;;;;23.47;42.15;99902.19;4244904;33;34233;-63
2023/05/14 04:09:44;;;;;;;4.97;1.70;;;;;;;23.47;42.14;99904.06;4245299;33;33972;-63
2023/05/14 04:12:12;;;;;;;3.92;2.03;;;;;;;23.45;42.16;99898.81;4247190;33;33532;-63
2023/05/14 04:14:40;;;;;;;3.40;1.40;;;;;;;23.45;42.17;99904.28;4246700;33;34833;-64
2023/05/14 04:17:07;;;;;;;4.68;1.70;;;;;;;23.46;42.18;99897.78;4247142;33;34173;-64
2023/05/14 04:19:35;;;;;;;9.43;2.03;;;;;;;23.46;42.18;99903.25;4246777;33;34009;-64
2023/05/14 04:22:02;;;;;;;8.05;2.00;;;;;;;23.46;42.20;99899.69;4246812;33;34365;-63
2023/05/14 04:24:30;;;;;;;5.78;1.75;;;;;;;23.45;42.24;99898.81;4246862;33;34615;-64
2023/05/14 04:26:58;;;;;;;5.35;1.95;;;;;;;23.46;42.26;99900.53;4246821;33;33992;-64
2023/05/14 04:29:26;;;;;;;6.55;2.10;;;;;;;23.46;42.25;99895.06;4254705;33;34126;-63
2023/05/14 04:31:53;;;;;;;3.45;1.70;;;;;;;23.45;42.24;99887.94;4260956;33;33765;-64
2023/05/14 04:34:21;;;;;;;5.47;1.90;;;;;;;23.46;42.25;99899.69;4260949;33;34049;-64
2023/05/14 04:36:48;;;;;;;5.72;1.90;;;;;;;23.47;42.22;99885.84;4260955;33;34788;-63
2023/05/14 04:39:16;;;;;;;3.33;2.10;;;;;;;23.47;42.21;99895.91;4260925;33;33828;-64
2023/05/14 04:41:45;;;;;;;4.78;1.42;;;;;;;23.48;42.17;99892.13;4260965;33;33416;-65
2023/05/14 04:44:12;;;;;;;5.53;2.00;;;;;;;23.49;42.12;99905.50;4260652;33;33773;-64
2023/05/14 04:46:40;;;;;;;6.93;2.15;;;;;;;23.49;42.13;99901.94;4260610;33;33664;-63
2023/05/14 04:49:08;;;;;;;3.08;1.50;;;;;;;23.48;42.19;99901.13;4256126;33;34581;-64
2023/05/14 04:51:35;;;;;;;3.97;1.90;;;;;;;23.47;42.23;99904.06;4254276;33;34235;-64
2023/05/14 04:54:03;;;;;;;4.12;1.80;;;;;;;23.47;42.25;99901.34;4259752;33;33720;-63
2023/05/14 04:56:30;;;;;;;3.33;1.65;;;;;;;23.47;42.26;99896.72;4257911;33;34042;-64
2023/05/14 04:58:58;;;;;;;4.75;1.70;;;;;;;23.48;42.23;99903.00;4252224;33;34001;-64
2023/05/14 05:01:25;;;;;;;3.25;1.58;;;;;;;23.46;42.22;99892.34;4248821;33;33343;-65
2023/05/14 05:03:56;;;;;;;3.97;1.92;;;;;;;23.47;42.23;99885.00;4246619;33;33695;-63
2023/05/14 05:06:24;;;;;;;4.32;1.70;;;;;;;23.46;42.27;99891.53;4246560;33;34134;-63
2023/05/14 05:08:51;;;;;;;4.00;1.80;;;;;;;23.45;42.27;99881.66;4246524;33;34711;-63
2023/05/14 05:11:20;;;;;;;2.83;1.60;;;;;;;23.44;42.27;99883.56;4246651;33;33367;-63
2023/05/14 05:13:47;;;;;;;4.68;1.50;;;;;;;23.44;42.29;99886.28;4246251;33;33357;-64
2023/05/14 05:16:15;;;;;;;3.47;1.50;;;;;;;23.43;42.30;99881.91;4246423;33;34013;-63
2023/05/14 05:18:44;;;;;;;4.10;1.83;;;;;;;23.43;42.29;99879.16;4246566;33;34089;-63
2023/05/14 05:21:11;;;;;;;6.43;1.85;;;;;;;23.43;42.29;99890.06;4245932;33;34421;-63
2023/05/14 05:23:39;;;;;;;5.05;1.60;;;;;;;23.43;42.29;99882.72;4246853;33;33631;-64
2023/05/14 05:26:07;;;;;;;3.95;1.90;;;;;;;23.45;42.30;99882.50;4246469;33;34076;-64
2023/05/14 05:28:34;;;;;;;5.87;1.95;;;;;;;23.44;42.32;99894.44;4249410;33;34532;-63
2023/05/14 05:31:02;;;;;;;5.55;1.90;;;;;;;23.44;42.31;99883.56;4260952;33;33626;-64
2023/05/14 05:33:29;;;;;;;4.87;1.80;;;;;;;23.44;42.28;99883.56;4260508;33;34067;-64
2023/05/14 05:35:57;;;;;;;5.47;1.77;;;;;;;23.45;42.20;99874.31;4260418;33;33609;-64
2023/05/14 05:38:24;;;;;;;3.72;1.50;;;;;;;23.45;42.21;99885.22;4258245;33;33788;-64
2023/05/14 05:40:52;;;;;;;5.12;1.60;;;;;;;23.46;42.21;99880.63;4245034;33;33331;-63
2023/05/14 05:43:20;;;;;;;3.00;1.65;;;;;;;23.46;42.07;99876.00;4246342;33;33708;-63
2023/05/14 05:45:47;;;;;;;4.15;1.55;;;;;;;23.46;42.03;99881.47;4245054;33;33963;-63
2023/05/14 05:48:15;;;;;;;4.65;1.67;;;;;;;23.47;42.08;99876.84;4246322;33;33506;-64
2023/05/14 05:50:43;;;;;;;3.87;2.17;;;;;;;23.47;42.16;99880.38;4246172;33;33437;-63
2023/05/14 05:53:11;;;;;;;2.97;1.35;;;;;;;23.47;42.13;99885.00;4246253;33;34123;-65
2023/05/14 05:55:39;;;;;;;5.35;2.10;;;;;;;23.46;42.14;99878.72;4246130;33;34731;-64
2023/05/14 05:58:07;;;;;;;6.78;2.10;;;;;;;23.47;42.22;99885.84;4244974;33;34100;-64
2023/05/14 06:00:34;;;;;;;7.40;2.25;;;;;;;23.47;42.27;99891.28;4246273;33;33513;-65
2023/05/14 06:03:02;;;;;;;3.10;1.67;;;;;;;23.47;42.22;99891.28;4246182;33;33917;-64
2023/05/14 06:05:29;;;;;;;4.57;1.70;;;;;;;23.47;42.19;99896.72;4246142;33;33721;-63
2023/05/14 06:07:57;;;;;;;6.43;1.95;;;;;;;23.46;42.09;99897.78;4246234;33;33576;-65
2023/05/14 06:10:25;;;;;;;2.92;1.45;;;;;;;23.48;42.03;99903.84;4246072;33;33778;-63
2023/05/14 06:12:52;;;;;;;3.85;1.42;;;;;;;23.49;42.19;99900.06;4246324;33;34850;-68
2023/05/14 06:15:20;;;;;;;3.95;1.40;;;;;;;23.49;42.21;99904.66;4246209;33;34936;-63
2023/05/14 06:17:47;;;;;;;8.27;1.87;;;;;;;23.49;42.15;99901.94;4251494;33;33915;-63
2023/05/14 06:20:15;;;;;;;3.08;1.70;;;;;;;23.50;42.15;99907.19;4252799;33;33287;-63
2023/05/14 06:22:43;;;;;;;4.87;1.83;;;;;;;23.50;42.10;99907.19;4252059;33;33899;-62
2023/05/14 06:25:10;;;;;;;4.30;1.80;;;;;;;23.50;42.00;99907.19;4252122;33;34014;-62
2023/05/14 06:27:38;;;;;;;4.57;1.83;;;;;;;23.50;41.91;99909.06;4250615;33;34013;-63
2023/05/14 06:30:06;;;;;;;2.78;1.60;;;;;;;23.49;41.84;99891.88;4255287;33;89557;-63
2023/05/14 06:32:33;;;;;;;4.93;1.75;;;;;;;23.51;41.81;99886.22;4259068;33;34896;-63
2023/05/14 06:35:01;;;;;;;4.22;1.73;;;;;;;23.51;41.78;99888.94;4260217;33;33889;-70
2023/05/14 06:37:28;;;;;;;9.75;3.10;;;;;;;23.49;41.66;99900.06;4260159;33;33982;-70
2023/05/14 06:39:56;;;;;;;18.23;3.22;;;;;;;23.49;40.85;99889.16;4260061;33;33501;-70
2023/05/14 06:42:25;;;;;;;4.65;2.50;;;;;;;23.46;40.77;99878.72;4260189;33;33794;-70
2023/05/14 06:44:53;;;;;;;4.32;2.47;;;;;;;23.46;41.01;99878.72;4260204;33;33663;-70
2023/05/14 06:47:21;;;;;;;3.47;1.85;;;;;;;23.45;41.13;99882.50;4259884;33;33868;-70
2023/05/14 06:49:48;;;;;;;5.28;1.90;;;;;;;23.45;41.17;99874.31;4260136;33;33382;-70
2023/05/14 06:52:16;;;;;;;4.93;1.92;;;;;;;23.45;41.19;99871.59;4257433;33;34540;-70
2023/05/14 06:54:44;;;;;;;3.12;1.77;;;;;;;23.46;41.18;99876.00;4258331;33;34695;-69
2023/05/14 06:57:11;;;;;;;3.08;1.83;;;;;;;23.47;41.14;99871.41;4266828;33;34570;-69
2023/05/14 06:59:39;;;;;;;4.22;1.98;;;;;;;23.47;41.05;99874.94;4244685;33;33338;-69
2023/05/14 07:02:06;;;;;;;4.10;2.08;;;;;;;23.48;40.99;99870.31;4265808;33;34733;-70
2023/05/14 07:04:35;;;;;;;4.28;2.22;;;;;;;23.48;40.98;99868.44;4261431;33;34321;-69
2023/05/14 07:07:03;;;;;;;4.00;2.17;;;;;;;23.48;40.80;99865.72;4274195;33;34835;-69
2023/05/14 07:09:30;;;;;;;4.57;2.20;;;;;;;23.49;40.63;99864.66;4274118;33;33491;-69
2023/05/14 07:11:58;;;;;;;4.40;2.20;;;;;;;23.49;40.54;99848.31;4274171;33;33869;-69
2023/05/14 07:14:25;;;;;;;4.45;2.30;;;;;;;23.50;40.60;99863.63;4263071;33;34091;-69
2023/05/14 07:16:53;;;;;;;4.05;2.15;;;;;;;23.51;40.63;99857.09;4258343;33;33011;-70
2023/05/14 07:19:21;;;;;;;6.95;2.53;;;;;;;23.51;40.67;99851.66;4259686;33;33391;-70
2023/05/14 07:21:48;;;;;;;6.87;2.80;;;;;;;23.53;40.75;99854.97;4257284;33;33654;-69
2023/05/14 07:24:16;;;;;;;4.25;2.20;;;;;;;23.54;40.80;99853.91;4271954;33;34471;-68
2023/05/14 07:26:44;;;;;;;8.10;2.90;;;;;;;23.55;40.90;99852.00;4260545;33;34620;-69
2023/05/14 07:29:12;;;;;;;9.02;2.75;;;;;;;23.58;40.95;99841.50;4252446;33;33104;-69
2023/05/14 07:31:40;;;;;;;4.97;2.67;;;;;;;23.61;41.00;99845.69;4242926;33;33839;-69
2023/05/14 07:34:09;;;;;;;4.47;2.67;;;;;;;23.61;41.04;99846.50;4244848;33;33840;-69
2023/05/14 07:36:37;;;;;;;6.75;2.83;;;;;;;23.63;41.09;99847.09;4258640;33;32963;-69
2023/05/14 07:39:06;;;;;;;8.93;2.70;;;;;;;23.63;41.15;99835.38;4257453;33;33636;-68
2023/05/14 07:41:34;;;;;;;5.70;2.60;;;;;;;23.64;41.21;99846.09;4244962;33;33853;-69
2023/05/14 07:44:01;;;;;;;6.43;2.85;;;;;;;23.64;41.21;99840.66;4245367;33;33946;-68
2023/05/14 07:46:29;;;;;;;6.55;2.53;;;;;;;23.65;41.27;99828.69;4246629;33;34716;-68
2023/05/14 07:48:56;;;;;;;5.15;2.90;;;;;;;23.67;41.35;99828.44;4233831;33;33658;-69
2023/05/14 07:51:27;;;;;;;8.48;2.55;;;;;;;23.68;41.38;99822.75;4272958;33;35356;-70
2023/05/14 07:53:54;;;;;;;9.27;3.10;;;;;;;23.70;41.36;99803.50;4275062;33;33637;-69
2023/05/14 07:56:22;;;;;;;5.57;3.08;;;;;;;23.72;41.34;99804.06;4274533;33;34268;-70
2023/05/14 07:58:50;;;;;;;6.28;2.85;;;;;;;23.72;41.28;99800.53;4274850;33;33461;-70
2023/05/14 08:01:18;;;;;;;6.00;2.85;;;;;;;23.72;41.22;99798.62;4274743;33;33618;-70
2023/05/14 08:03:46;;;;;;;4.57;2.90;;;;;;;23.73;41.13;99796.75;4275150;33;33809;-70
2023/05/14 08:06:14;;;;;;;6.45;2.83;;;;;;;23.74;41.10;99795.69;4261634;33;33438;-69
2023/05/14 08:08:41;;;;;;;6.43;3.05;;;;;;;23.73;41.08;99786.66;4274755;33;34095;-70
2023/05/14 08:11:09;;;;;;;5.93;2.58;;;;;;;23.72;41.11;99774.13;4267529;33;34566;-70
2023/05/14 08:13:37;;;;;;;7.82;3.37;;;;;;;23.72;41.09;99786.91;4260914;33;33732;-70
2023/05/14 08:16:05;;;;;;;6.37;2.60;;;;;;;23.71;41.05;99768.91;4261001;33;34721;-70
2023/05/14 08:18:33;;;;;;;6.93;2.28;;;;;;;23.70;40.93;99770.81;4261037;33;34099;-70
2023/05/14 08:21:01;;;;;;;4.53;2.58;;;;;;;23.69;40.88;99769.16;4260750;33;34789;-70
2023/05/14 08:23:30;;;;;;;6.20;2.50;;;;;;;23.66;40.82;99792.22;4261225;33;33624;-69
2023/05/14 08:25:58;;;;;;;5.60;2.70;;;;;;;23.67;40.83;99773.97;4260921;33;34049;-70
2023/05/14 08:28:25;;;;;;;5.18;2.87;;;;;;;23.65;40.80;99765.22;4258557;33;33199;-70
2023/05/14 08:30:53;;;;;;;5.22;2.67;;;;;;;23.64;40.78;99758.06;4246761;33;33856;-71
2023/05/14 08:33:21;;;;;;;6.05;2.72;;;;;;;23.64;40.77;99758.06;4246751;33;33938;-71
2023/05/14 08:35:51;;;;;;;5.20;2.53;;;;;;;23.63;40.78;99759.94;4246499;33;33827;-70
2023/05/14 08:38:19;;;;;;;4.70;2.50;;;;;;;23.63;40.76;99753.66;4250105;33;33355;-72
2023/05/14 08:40:57;;;;;;;5.05;2.67;;;;;;;23.63;40.77;99753.66;4246793;33;34760;-72
2023/05/14 08:43:26;;;;;;;4.45;2.75;;;;;;;23.63;40.84;99773.56;4246796;33;33626;-72
2023/05/14 08:45:56;;;;;;;3.72;2.33;;;;;;;23.62;40.85;99771.06;4234102;33;34621;-71
2023/05/14 08:48:25;;;;;;;6.30;2.85;;;;;;;23.62;40.86;99771.06;4246556;33;33186;-70
2023/05/14 08:50:53;;;;;;;6.40;2.97;;;;;;;23.62;40.91;99774.63;4234143;33;33828;-69
2023/05/14 08:53:21;;;;;;;5.68;3.00;;;;;;;23.62;41.00;99771.06;4245525;33;33908;-70
2023/05/14 08:55:49;;;;;;;7.18;3.20;;;;;;;23.63;41.13;99773.56;4233118;33;34469;-71
2023/05/14 08:58:17;;;;;;;5.03;2.95;;;;;;;23.62;41.25;99766.44;4245507;33;33346;-69
2023/05/14 09:00:44;;;;;;;7.82;3.20;;;;;;;23.63;41.34;99750.94;4246660;33;34036;-69
2023/05/14 09:03:12;;;;;;;6.95;2.50;;;;;;;23.63;41.45;99754.50;4246769;33;33850;-69
2023/05/14 09:05:40;;;;;;;7.62;2.80;;;;;;;23.63;41.48;99757.22;4245391;33;34480;-69
2023/05/14 09:08:10;;;;;;;10.80;3.10;;;;;;;23.63;41.39;99768.09;4233605;33;33118;-69
2023/05/14 09:10:39;;;;;;;5.68;2.83;;;;;;;23.62;41.22;99760.19;4246335;33;33939;-69
2023/05/14 09:13:08;;;;;;;5.28;2.83;;;;;;;23.62;41.09;99766.44;4246463;33;34162;-69
2023/05/14 09:15:36;;;;;;;5.62;2.83;;;;;;;23.62;41.14;99765.63;4245225;33;33762;-69
2023/05/14 09:18:04;;;;;;;7.12;3.05;;;;;;;23.62;41.19;99754.72;4233692;33;33193;-69
2023/05/14 09:20:32;;;;;;;5.18;2.78;;;;;;;23.61;41.20;99766.69;4233769;33;33680;-69
2023/05/14 09:23:00;;;;;;;5.15;2.78;;;;;;;23.59;41.17;99766.06;4234442;33;34800;-69
2023/05/14 09:25:31;;;;;;;5.95;2.80;;;;;;;23.59;41.13;99753.28;4260034;33;33942;-69
2023/05/14 09:27:58;;;;;;;4.87;2.65;;;;;;;23.59;41.15;99752.44;4227347;33;33477;-69
2023/05/14 09:30:29;;;;;;;6.78;2.75;;;;;;;23.58;41.19;99742.63;4255047;33;33564;-71
2023/05/14 09:32:56;;;;;;;4.97;2.80;;;;;;;23.57;41.28;99736.34;4259759;33;34843;-71
2023/05/14 09:35:24;;;;;;;9.00;2.80;;;;;;;23.58;41.22;99745.34;4260509;33;33390;-70
2023/05/14 09:37:52;;;;;;;6.68;3.22;;;;;;;23.56;41.25;99740.13;4254975;33;33295;-70
2023/05/14 09:40:21;;;;;;;5.75;3.15;;;;;;;23.57;41.38;99743.69;4258937;33;33745;-70
2023/05/14 09:42:49;;;;;;;7.33;2.83;;;;;;;23.56;41.51;99729.25;4233245;33;33924;-70
2023/05/14 09:45:16;;;;;;;5.85;3.17;;;;;;;23.59;41.56;99719.75;4252368;33;33915;-70
2023/05/14 09:47:44;;;;;;;6.07;3.12;;;;;;;23.59;41.70;99714.31;4258695;33;33052;-70
2023/05/14 09:50:12;;;;;;;5.47;2.55;;;;;;;23.60;41.80;99716.00;4258796;33;33383;-69
2023/05/14 09:52:39;;;;;;;7.28;2.90;;;;;;;23.60;41.87;99711.37;4259980;33;34091;-70
2023/05/14 09:55:07;;;;;;;5.62;2.42;;;;;;;23.62;41.96;99714.69;4259341;33;33863;-71
2023/05/14 09:57:35;;;;;;;4.22;2.55;;;;;;;23.63;42.13;99712.81;4260413;33;34098;-71
2023/05/14 10:00:03;;;;;;;5.57;2.83;;;;;;;23.64;42.17;99707.19;4258775;33;33932;-71
2023/05/14 10:02:39;;;;;;;4.70;2.65;;;;;;;23.66;42.26;99693.31;4257923;33;33883;-70
2023/05/14 10:05:08;;;;;;;8.05;2.97;;;;;;;23.68;42.38;99678.38;4247454;33;34136;-70
2023/05/14 10:07:38;;;;;;;6.65;2.70;;;;;;;23.69;42.40;99673.78;4259089;33;33622;-70
2023/05/14 10:10:07;;;;;;;7.25;2.75;;;;;;;23.72;42.51;99667.03;4260417;33;35014;-70
2023/05/14 10:12:36;;;;;;;4.62;2.22;;;;;;;23.74;42.54;99659.47;4247043;33;34654;-70
2023/05/14 10:15:08;;;;;;;4.80;2.60;;;;;;;23.75;42.58;99647.50;4258524;33;33854;-70
2023/05/14 10:17:36;;;;;;;5.28;2.65;;;;;;;23.77;42.61;99646.22;4258560;33;33488;-72
2023/05/14 10:20:07;;;;;;;4.72;2.30;;;;;;;23.79;42.63;99637.81;4259872;33;33601;-69
2023/05/14 10:22:34;;;;;;;4.47;2.60;;;;;;;23.81;42.64;99613.88;4259198;33;33536;-71
2023/05/14 10:25:02;;;;;;;6.20;2.40;;;;;;;23.83;42.66;99606.31;4257627;33;34006;-69
2023/05/14 10:27:30;;;;;;;4.80;2.55;;;;;;;23.84;42.69;99602.53;4258117;33;33244;-69
2023/05/14 10:29:57;;;;;;;5.68;2.65;;;;;;;23.86;42.73;99616.72;4260201;33;33675;-69
2023/05/14 10:32:25;;;;;;;7.70;2.58;;;;;;;23.87;42.81;99629.28;4252401;33;33586;-69
2023/05/14 10:34:53;;;;;;;5.00;2.15;;;;;;;23.88;42.77;99644.59;4249489;33;34843;-69
2023/05/14 10:37:22;;;;;;;6.03;2.67;;;;;;;23.88;42.79;99645.44;4259652;33;32987;-69
2023/05/14 10:39:52;;;;;;;5.07;2.50;;;;;;;23.89;42.80;99638.91;4262660;33;33263;-70
2023/05/14 10:42:20;;;;;;;5.72;2.58;;;;;;;23.91;42.77;99638.66;4235335;33;34762;-70
2023/05/14 10:44:55;;;;;;;6.03;2.50;;;;;;;23.91;42.76;99636.75;4259597;33;33898;-69
2023/05/14 10:47:33;;;;;;;5.50;2.22;;;;;;;23.91;42.79;99634.03;4259344;33;34334;-68
2023/05/14 10:50:10;;;;;;;4.35;2.35;;;;;;;23.91;42.83;99633.22;4222579;33;33423;-69
2023/05/14 10:52:42;;;;;;;5.37;2.42;;;;;;;23.93;42.84;99629.19;4246529;33;33780;-71
2023/05/14 10:55:14;;;;;;;9.57;2.78;;;;;;;23.90;42.90;99628.84;4258165;33;33797;-68
2023/05/14 10:57:43;;;;;;;14.35;3.17;;;;;;;23.92;42.95;99629.41;4257593;33;33660;-69
2023/05/14 11:00:11;;;;;;;7.35;2.80;;;;;;;23.91;42.94;99630.50;4258783;33;33666;-69
2023/05/14 11:02:40;;;;;;;11.02;3.33;;;;;;;23.91;42.88;99625.88;4259258;33;33825;-69
2023/05/14 11:05:15;;;;;;;9.20;3.10;;;;;;;23.91;42.87;99635.94;4245804;33;33394;-69
2023/05/14 11:07:45;;;;;;;8.38;2.67;;;;;;;23.91;42.84;99625.88;4246023;33;33966;-69
2023/05/14 11:10:17;;;;;;;5.40;2.70;;;;;;;23.89;42.83;99614.38;4258497;33;34606;-70
2023/05/14 11:12:46;;;;;;;7.07;2.40;;;;;;;23.90;42.82;99610.59;4259174;33;34027;-68
2023/05/14 11:15:15;;;;;;;5.93;2.90;;;;;;;23.89;42.83;99608.09;4259305;33;34493;-69
2023/05/14 11:17:43;;;;;;;6.90;3.00;;;;;;;23.87;42.83;99613.75;4259832;33;34106;-69
2023/05/14 11:20:11;;;;;;;6.05;2.60;;;;;;;23.89;42.80;99617.09;4258498;33;34668;-68
2023/05/14 11:22:39;;;;;;;6.28;2.72;;;;;;;23.87;42.80;99615.66;4246334;33;34630;-69
2023/05/14 11:25:08;;;;;;;5.28;2.62;;;;;;;23.87;42.80;99615.66;4258957;33;34697;-68
2023/05/14 11:27:39;;;;;;;6.28;2.85;;;;;;;23.86;42.80;99609.38;4258839;33;33346;-69
2023/05/14 11:30:19;;;;;;;7.25;2.58;;;;;;;23.85;42.83;99620.53;4257656;33;33922;-68
2023/05/14 11:32:48;;;;;;;4.72;2.65;;;;;;;23.86;42.79;99614.84;4257062;33;34538;-68
2023/05/14 11:35:16;;;;;;;5.00;2.63;;;;;;;23.85;42.78;99617.81;4254205;33;33576;-68
2023/05/14 11:37:49;;;;;;;6.55;2.78;;;;;;;23.84;42.73;99614.25;4258969;33;33492;-68